3F3

C E 'rusty' Williams Airport

Mansfield, Louisiana, USA
METAR K3F3 172315Z AUTO 00000KT 10SM CLR 16/11 A3015 RMK AO2 T01630108
Observed Flight Rules
Nov-17 @ 23:15 UTC (21 minutes ago) Visual Flight Rules
Visibility Clouds
10 miles
  • Clear skies
Temperatures Readings
Current 16°C / 61°F
Dewpoint 11°C / 52°F
Humidity 72%
Altimeter 30.15" Hg
Pressure 1021 hPa
Elevation 96
METAR K3F3 172315Z AUTO 00000KT 10SM CLR 16/11 A3015 RMK AO2 T01630108
Observed Flight Rules
Nov-17 @ 23:15 UTC
(21 minutes ago)
VFR
Clouds
  • Clear skies
Temperature Dewpoint
16°C / 61°F 11°C / 52°F
Humidity Altimeter Pressure
72% 30.15" Hg 1021 hPa